Time;durP1;ratioP1;P1;durP2;ratioP2;P2;SDS_P1;SDS_P2;PMS_P1;PMS_P2;Temp;Humidity;BMP_temperature;BMP_pressure;BME280_temperature;BME280_humidity;BME280_pressure;Samples;Min_cycle;Max_cycle;Signal;HPM_P1;HPM_P2
2022/06/20 04:25:13;;;;;;;2.20;0.68;;;;;;;13.86;68.39;101591.88;5073149;27;96878;-33
2022/06/20 04:27:46;;;;;;;2.13;1.02;;;;;;;13.87;68.47;101604.53;5076507;27;96825;-33
2022/06/20 04:30:35;;;;;;;3.80;0.73;;;;;;;13.93;68.78;101612.31;5075668;27;99587;-33
2022/06/20 04:33:21;;;;;;;1.55;0.77;;;;;;;13.96;68.22;101619.41;5074121;27;100977;-33
2022/06/20 04:36:15;;;;;;;2.05;0.80;;;;;;;13.97;68.36;101621.16;5075578;27;96469;-33
2022/06/20 04:38:47;;;;;;;10.35;1.33;;;;;;;14.01;68.38;101623.59;5076202;27;96486;-33
2022/06/20 04:41:22;;;;;;;10.82;1.15;;;;;;;13.99;68.10;101613.75;5074142;27;101194;-33
2022/06/20 04:43:55;;;;;;;2.78;0.82;;;;;;;14.05;67.83;101615.22;5073952;27;100834;-32
2022/06/20 04:46:36;;;;;;;1.00;0.70;;;;;;;14.06;67.96;101617.84;5074356;27;96612;-33
2022/06/20 04:49:02;;;;;;;2.05;1.05;;;;;;;14.05;67.77;101621.53;5074456;27;96694;-33
2022/06/20 04:51:34;;;;;;;1.65;0.80;;;;;;;14.08;68.07;101617.75;5074262;27;99870;-33
2022/06/20 04:54:01;;;;;;;2.92;0.93;;;;;;;14.10;67.78;101624.84;5074515;27;101005;-33
2022/06/20 04:56:29;;;;;;;7.72;1.00;;;;;;;14.10;68.05;101605.78;5074436;27;96790;-32
2022/06/20 04:59:02;;;;;;;3.75;0.80;;;;;;;14.06;67.96;101601.50;5074235;27;96595;-33
2022/06/20 05:01:31;;;;;;;1.38;0.68;;;;;;;14.11;67.85;101613.00;5073507;27;100930;-33
2022/06/20 05:04:07;;;;;;;3.75;0.98;;;;;;;14.18;67.83;101625.25;5073811;27;101090;-33
2022/06/20 05:06:36;;;;;;;1.88;0.93;;;;;;;14.23;67.94;101611.31;5075708;27;96696;-33
2022/06/20 05:09:18;;;;;;;2.33;0.90;;;;;;;14.21;68.18;101600.50;5074218;27;96937;-33
2022/06/20 05:11:51;;;;;;;6.28;1.13;;;;;;;14.24;67.60;101605.75;5073894;27;101343;-33
2022/06/20 05:14:24;;;;;;;1.27;0.85;;;;;;;14.22;67.84;101601.38;5074022;27;100891;-33
2022/06/20 05:16:53;;;;;;;4.90;0.93;;;;;;;14.34;67.61;101616.06;5074254;27;97089;-33
2022/06/20 05:19:27;;;;;;;0.95;0.70;;;;;;;14.40;67.20;101630.19;5074435;27;96864;-33
2022/06/20 05:21:55;;;;;;;1.00;0.73;;;;;;;14.40;67.02;101618.41;5074706;27;98971;-33
2022/06/20 05:24:24;;;;;;;3.40;1.08;;;;;;;14.35;67.14;101615.06;5075028;27;98739;-32
2022/06/20 05:26:52;;;;;;;1.60;0.88;;;;;;;14.43;67.17;101635.41;5072809;27;96907;-33
2022/06/20 05:29:27;;;;;;;2.65;0.98;;;;;;;14.48;67.13;101617.91;5073956;27;96794;-33
2022/06/20 05:31:54;;;;;;;3.65;0.90;;;;;;;14.52;67.27;101633.09;5073050;27;101219;-33
2022/06/20 05:34:46;;;;;;;1.70;1.00;;;;;;;14.52;67.87;101638.53;5073398;27;100818;-33
2022/06/20 05:37:30;;;;;;;3.63;1.20;;;;;;;14.56;67.41;101649.19;5073774;27;96582;-32
2022/06/20 05:40:26;;;;;;;3.88;1.60;;;;;;;14.61;67.27;101646.13;5075208;27;96722;-32
2022/06/20 05:42:52;;;;;;;2.10;1.20;;;;;;;14.74;66.61;101643.47;5074036;27;97488;-34
2022/06/20 05:45:23;;;;;;;3.42;1.27;;;;;;;14.79;66.75;101638.59;5075004;27;97305;-33
2022/06/20 05:48:02;;;;;;;7.38;1.27;;;;;;;14.88;66.56;101651.59;5073791;27;96605;-33
2022/06/20 05:50:45;;;;;;;4.65;1.40;;;;;;;15.02;66.74;101664.34;5074384;27;97019;-34
2022/06/20 05:53:18;;;;;;;3.03;1.10;;;;;;;15.10;66.13;101655.63;5070239;27;100790;-34
2022/06/20 05:55:47;;;;;;;4.75;1.50;;;;;;;15.29;65.90;101662.44;5072045;27;101398;-33
2022/06/20 05:58:21;;;;;;;2.85;1.38;;;;;;;15.43;65.37;101664.22;5073011;27;96632;-33
2022/06/20 06:00:49;;;;;;;1.88;1.05;;;;;;;15.44;64.89;101656.91;5073027;27;96906;-34
2022/06/20 06:03:37;;;;;;;3.05;1.08;;;;;;;15.51;65.07;101674.63;5076005;27;100605;-34
2022/06/20 06:06:08;;;;;;;3.97;1.23;;;;;;;15.43;64.90;101677.88;5077680;27;98353;-34
2022/06/20 06:08:39;;;;;;;1.63;1.20;;;;;;;15.41;65.39;101689.88;5076369;27;96683;-34
2022/06/20 06:11:16;;;;;;;2.95;1.40;;;;;;;15.34;64.92;101683.09;5077928;27;96812;-34
2022/06/20 06:13:51;;;;;;;6.50;1.40;;;;;;;15.37;65.21;101680.16;5076156;27;100962;-34
2022/06/20 06:16:48;;;;;;;5.32;1.50;;;;;;;15.31;65.35;101681.47;5077971;27;97269;-33
2022/06/20 06:19:16;;;;;;;5.88;1.27;;;;;;;15.23;65.37;101673.78;5077823;27;96585;-34
2022/06/20 06:21:42;;;;;;;4.18;0.95;;;;;;;15.13;65.20;101678.09;5076525;27;96838;-34
2022/06/20 06:24:12;;;;;;;5.25;1.38;;;;;;;15.07;65.45;101681.25;5076440;27;101291;-34
2022/06/20 06:26:40;;;;;;;4.18;1.20;;;;;;;15.02;65.35;101686.16;5077319;27;99536;-34
2022/06/20 06:29:15;;;;;;;2.70;1.42;;;;;;;14.96;65.47;101686.56;5076679;27;96671;-34
2022/06/20 06:31:42;;;;;;;6.60;1.30;;;;;;;14.85;65.32;101674.53;5077924;27;96713;-33
2022/06/20 06:34:34;;;;;;;4.10;1.35;;;;;;;14.89;65.42;101696.13;5077261;27;99824;-34
2022/06/20 06:37:12;;;;;;;3.60;1.38;;;;;;;14.94;65.04;101696.69;5076693;27;101390;-34
2022/06/20 06:40:03;;;;;;;3.53;1.27;;;;;;;14.94;65.34;101697.56;5076680;27;96676;-33
2022/06/20 06:42:28;;;;;;;2.88;1.45;;;;;;;14.92;65.39;101690.47;5078010;27;96565;-34
2022/06/20 06:44:58;;;;;;;2.42;1.17;;;;;;;15.17;65.01;101698.75;5077258;27;97843;-35
2022/06/20 06:47:32;;;;;;;4.75;1.55;;;;;;;15.25;64.50;101687.31;5076070;27;101179;-33
2022/06/20 06:50:12;;;;;;;7.15;1.63;;;;;;;15.58;64.05;101710.56;5076371;27;96670;-34
2022/06/20 06:52:44;;;;;;;5.97;1.38;;;;;;;15.83;63.03;101699.72;5076498;27;96774;-34
2022/06/20 06:55:27;;;;;;;3.38;1.33;;;;;;;16.21;62.68;101703.44;5076117;27;100823;-34
2022/06/20 06:57:59;;;;;;;10.88;1.90;;;;;;;16.42;62.09;101701.94;5077340;27;97301;-34
2022/06/20 07:00:36;;;;;;;3.45;1.25;;;;;;;16.56;61.90;101693.59;5077457;27;96489;-34
2022/06/20 07:03:10;;;;;;;2.97;1.33;;;;;;;16.86;61.70;101702.41;5076642;27;96722;-34
2022/06/20 07:05:44;;;;;;;6.78;1.23;;;;;;;16.98;61.51;101698.75;5077221;27;99399;-34
2022/06/20 07:08:17;;;;;;;5.20;1.50;;;;;;;17.13;61.04;101696.69;5059651;27;100870;-34
2022/06/20 07:10:49;;;;;;;3.53;1.60;;;;;;;17.14;60.68;101702.06;5075460;27;96535;-34
2022/06/20 07:13:39;;;;;;;6.75;1.67;;;;;;;16.94;60.51;101717.25;5076338;27;96770;-34
2022/06/20 07:16:18;;;;;;;8.52;1.60;;;;;;;16.58;59.93;101711.72;5059007;27;101049;-34
2022/06/20 07:18:49;;;;;;;5.07;1.20;;;;;;;16.57;60.42;101721.81;5075764;27;99178;-34
2022/06/20 07:21:18;;;;;;;4.93;1.33;;;;;;;16.82;60.21;101712.69;5076027;27;96593;-34
2022/06/20 07:24:11;;;;;;;4.25;1.33;;;;;;;17.09;59.35;101715.25;5075694;27;96715;-34
2022/06/20 07:26:56;;;;;;;5.32;1.02;;;;;;;17.30;59.23;101715.44;5076154;27;99490;-34
2022/06/20 07:29:26;;;;;;;5.97;1.60;;;;;;;17.56;58.32;101707.09;5075715;27;100981;-34
2022/06/20 07:32:13;;;;;;;8.60;1.55;;;;;;;17.80;58.42;101716.22;5075615;27;96738;-35
2022/06/20 07:34:47;;;;;;;4.70;1.48;;;;;;;17.99;57.50;101717.47;5075763;27;96716;-33
2022/06/20 07:37:20;;;;;;;6.07;1.85;;;;;;;17.73;58.44;101706.69;5074711;27;101466;-34
2022/06/20 07:39:58;;;;;;;5.20;1.20;;;;;;;17.53;57.61;101735.63;5075330;27;101307;-34
2022/06/20 07:42:50;;;;;;;4.13;1.42;;;;;;;17.14;57.10;101732.19;5075314;27;96739;-34
2022/06/20 07:45:23;;;;;;;2.80;1.23;;;;;;;17.00;58.52;101720.53;5075605;27;96768;-34
2022/06/20 07:47:54;;;;;;;6.57;1.38;;;;;;;16.87;58.17;101736.97;5075191;27;101225;-34
2022/06/20 07:50:46;;;;;;;6.03;1.77;;;;;;;16.77;58.27;101728.53;5075153;27;100799;-34
2022/06/20 07:53:20;;;;;;;3.05;1.25;;;;;;;17.17;57.73;101726.47;5076411;27;96522;-34
2022/06/20 07:55:51;;;;;;;2.90;1.50;;;;;;;17.43;57.37;101720.88;5075773;27;96767;-34
2022/06/20 07:58:26;;;;;;;8.27;1.48;;;;;;;17.60;56.52;101734.16;5074953;27;100972;-34
2022/06/20 08:00:53;;;;;;;5.93;1.63;;;;;;;17.81;56.43;101731.66;5076242;27;97916;-33
2022/06/20 08:03:36;;;;;;;10.07;1.33;;;;;;;18.12;56.33;101718.28;5074757;27;96685;-34
2022/06/20 08:06:33;;;;;;;2.08;1.15;;;;;;;18.37;55.53;101721.78;5076938;27;96483;-34
2022/06/20 08:09:10;;;;;;;4.20;1.52;;;;;;;18.56;54.38;101713.78;5063429;27;100861;-34
2022/06/20 08:11:43;;;;;;;5.28;1.83;;;;;;;18.33;55.32;101723.91;5054409;27;100844;-34
2022/06/20 08:14:29;;;;;;;3.13;1.65;;;;;;;18.04;55.69;101721.63;5055778;27;96627;-34
2022/06/20 08:17:00;;;;;;;4.65;1.40;;;;;;;17.83;55.78;101732.41;5054765;27;96849;-33
2022/06/20 08:19:26;;;;;;;7.18;1.58;;;;;;;17.84;56.39;101725.06;5054188;27;101130;-33
2022/06/20 08:22:01;;;;;;;9.32;1.75;;;;;;;18.09;55.94;101734.06;5055647;27;98615;-34
2022/06/20 08:24:42;;;;;;;3.30;1.00;;;;;;;18.03;55.60;101738.19;5054205;27;96730;-32
2022/06/20 08:27:10;;;;;;;7.50;1.17;;;;;;;17.76;55.66;101739.31;5055962;27;96466;-34
2022/06/20 08:29:39;;;;;;;1.58;0.85;;;;;;;17.73;56.19;101745.06;5053443;27;100810;-33
2022/06/20 08:32:39;;;;;;;5.22;1.13;;;;;;;17.91;55.67;101741.91;5053573;27;100882;-33
2022/06/20 08:35:29;;;;;;;5.90;1.52;;;;;;;18.06;54.86;101745.28;5052536;27;96869;-34
2022/06/20 08:38:01;;;;;;;3.83;1.08;;;;;;;17.86;55.43;101744.13;5054264;27;96683;-34
2022/06/20 08:40:45;;;;;;;11.05;1.13;;;;;;;18.18;55.66;101747.06;5053891;27;101067;-34
2022/06/20 08:43:23;;;;;;;4.32;1.17;;;;;;;18.70;53.99;101745.59;5053685;27;101118;-34
2022/06/20 08:46:10;;;;;;;4.32;1.35;;;;;;;18.90;53.57;101749.47;5055882;27;96459;-34
2022/06/20 08:49:20;;;;;;;4.43;1.40;;;;;;;18.87;53.47;101752.50;5054502;27;96708;-34
2022/06/20 08:52:06;;;;;;;2.20;1.23;;;;;;;18.66;53.01;101752.34;5040005;27;100714;-33
2022/06/20 08:55:03;;;;;;;2.30;1.33;;;;;;;18.60;54.05;101753.72;5053747;27;100892;-34
2022/06/20 08:57:34;;;;;;;7.75;1.35;;;;;;;18.82;54.08;101760.22;5055106;27;96667;-33
2022/06/20 09:00:17;;;;;;;2.10;0.93;;;;;;;18.82;53.26;101758.34;5055396;27;96732;-34
2022/06/20 09:03:09;;;;;;;5.15;1.65;;;;;;;18.97;53.01;101764.44;5053231;27;101335;-33
2022/06/20 09:05:52;;;;;;;8.65;1.73;;;;;;;19.30;52.04;101759.91;5053597;27;101327;-34
2022/06/20 09:08:29;;;;;;;2.22;1.15;;;;;;;19.57;50.72;101761.31;5055327;27;96677;-34
2022/06/20 09:11:26;;;;;;;4.30;1.13;;;;;;;19.69;51.54;101755.69;5055211;27;96578;-34
2022/06/20 09:14:04;;;;;;;2.78;1.10;;;;;;;19.98;50.02;101765.19;5055044;27;97392;-34
2022/06/20 09:16:35;;;;;;;2.30;1.02;;;;;;;20.21;49.79;101766.75;5055358;27;97771;-33
2022/06/20 09:19:19;;;;;;;2.35;1.02;;;;;;;20.39;49.48;101769.78;5053617;27;96733;-34
2022/06/20 09:22:06;;;;;;;4.22;1.15;;;;;;;20.53;47.06;101774.06;5055200;27;96470;-34
2022/06/20 09:24:53;;;;;;;2.50;1.00;;;;;;;20.63;47.64;101765.88;5052841;27;101181;-34
2022/06/20 09:27:29;;;;;;;6.65;1.75;;;;;;;20.68;48.23;101767.22;5054916;27;97896;-34
2022/06/20 09:30:02;;;;;;;4.13;1.10;;;;;;;20.93;48.83;101767.78;5053446;27;96644;-34
2022/06/20 09:32:27;;;;;;;6.82;1.10;;;;;;;21.12;47.55;101764.22;5055004;27;96729;-34
2022/06/20 09:35:04;;;;;;;4.03;1.27;;;;;;;21.24;47.57;101773.19;5054675;27;98008;-34
2022/06/20 09:37:32;;;;;;;11.48;1.52;;;;;;;21.15;46.88;101772.19;5057153;27;97426;-34
2022/06/20 09:40:06;;;;;;;5.90;1.63;;;;;;;21.18;47.39;101772.75;5058406;27;96517;-34
2022/06/20 09:42:45;;;;;;;4.45;1.13;;;;;;;21.28;46.97;101774.66;5058486;27;96745;-34
2022/06/20 09:45:32;;;;;;;5.53;1.27;;;;;;;21.27;46.15;101772.94;5056744;27;100366;-34
2022/06/20 09:48:38;;;;;;;3.28;1.20;;;;;;;21.31;46.66;101774.38;5056574;27;100876;-34
2022/06/20 09:51:09;;;;;;;5.03;1.13;;;;;;;21.42;47.05;101758.63;5057819;27;96586;-34
2022/06/20 09:54:11;;;;;;;7.10;1.43;;;;;;;21.55;46.96;101776.78;5057187;27;96655;-34
2022/06/20 09:56:54;;;;;;;2.65;1.35;;;;;;;21.64;46.41;101762.13;5057990;27;98035;-34
2022/06/20 09:59:42;;;;;;;3.78;1.33;;;;;;;21.77;47.00;101776.50;5056447;27;100747;-34
2022/06/20 10:02:33;;;;;;;1.92;1.08;;;;;;;21.62;45.41;101783.47;5056527;27;96629;-34
2022/06/20 10:05:09;;;;;;;3.13;1.13;;;;;;;21.54;45.30;101773.13;5057882;27;96637;-34
2022/06/20 10:07:37;;;;;;;4.63;1.33;;;;;;;21.43;46.52;101787.06;5056273;27;101150;-34
2022/06/20 10:10:28;;;;;;;7.03;1.38;;;;;;;21.34;45.66;101782.38;5057928;27;97319;-34
2022/06/20 10:13:08;;;;;;;10.87;1.60;;;;;;;21.28;45.06;101791.19;5048330;27;96795;-34
2022/06/20 10:15:57;;;;;;;4.20;1.48;;;;;;;21.30;44.58;101791.94;5056332;27;96779;-34
2022/06/20 10:18:32;;;;;;;5.22;1.60;;;;;;;21.38;45.70;101806.75;5055756;27;101145;-34
2022/06/20 10:21:12;;;;;;;8.98;1.73;;;;;;;21.59;44.71;101797.53;5057688;27;97462;-34
2022/06/20 10:24:04;;;;;;;6.85;1.30;;;;;;;21.66;44.02;101786.81;5058313;27;96576;-34
2022/06/20 10:26:48;;;;;;;6.57;1.40;;;;;;;21.90;45.39;101803.78;5055948;27;96741;-34
2022/06/20 10:29:55;;;;;;;5.53;1.23;;;;;;;22.02;42.71;101810.03;5057462;27;98250;-34
2022/06/20 10:32:34;;;;;;;3.33;1.25;;;;;;;21.96;44.53;101810.63;5040600;27;100461;-34
2022/06/20 10:35:06;;;;;;;2.28;1.20;;;;;;;22.00;43.37;101809.31;5056317;27;96662;-34
2022/06/20 10:37:47;;;;;;;4.22;1.25;;;;;;;22.01;44.17;101816.56;5057867;27;97722;-34
2022/06/20 10:40:47;;;;;;;2.87;1.30;;;;;;;22.00;42.93;101820.34;5055793;27;101534;-34
2022/06/20 10:43:40;;;;;;;7.25;1.98;;;;;;;21.96;43.33;101821.66;5056928;27;97095;-34
2022/06/20 10:46:23;;;;;;;5.10;1.10;;;;;;;21.91;43.98;101832.28;5056899;27;97654;-34
2022/06/20 10:48:54;;;;;;;6.53;1.50;;;;;;;21.93;43.42;101832.97;5055670;27;96500;-34
2022/06/20 10:51:38;;;;;;;3.17;1.13;;;;;;;22.13;43.47;101831.97;5057076;27;97542;-34
2022/06/20 10:54:03;;;;;;;8.13;1.77;;;;;;;22.20;44.33;101832.25;5057044;27;99594;-34
2022/06/20 10:56:49;;;;;;;3.13;1.20;;;;;;;22.10;43.47;101845.19;5057230;27;97253;-34
2022/06/20 10:59:40;;;;;;;4.78;1.52;;;;;;;21.74;44.60;101837.47;5055722;27;96785;-34
2022/06/20 11:02:28;;;;;;;5.93;1.50;;;;;;;21.73;43.73;101841.22;5055352;27;101222;-34
2022/06/20 11:05:04;;;;;;;5.15;1.15;;;;;;;21.46;44.87;101858.47;5057425;27;97322;-34
2022/06/20 11:07:36;;;;;;;5.30;1.50;;;;;;;21.30;44.06;101855.31;5055533;27;96585;-34
2022/06/20 11:10:20;;;;;;;6.38;1.40;;;;;;;21.20;45.00;101852.53;5057232;27;96768;-34
2022/06/20 11:12:51;;;;;;;3.53;1.30;;;;;;;21.01;45.46;101864.34;5055995;27;99454;-34
2022/06/20 11:15:45;;;;;;;7.63;1.85;;;;;;;20.82;45.56;101864.25;5055300;27;99570;-34
2022/06/20 11:18:43;;;;;;;2.65;1.15;;;;;;;20.81;44.69;101856.97;5056788;27;96582;-34
2022/06/20 11:21:30;;;;;;;4.97;1.17;;;;;;;21.18;45.61;101866.44;5052924;27;96977;-34
2022/06/20 11:24:28;;;;;;;2.40;1.10;;;;;;;21.37;43.94;101871.16;5055993;27;99314;-35
2022/06/20 11:27:34;;;;;;;4.68;1.10;;;;;;;21.50;44.24;101868.19;5054600;27;100928;-34
2022/06/20 11:30:06;;;;;;;4.00;1.13;;;;;;;21.26;44.38;101860.25;5053945;27;96838;-34
2022/06/20 11:32:38;;;;;;;5.82;1.40;;;;;;;20.98;43.91;101868.25;5052385;27;96966;-34
2022/06/20 11:35:34;;;;;;;4.90;1.20;;;;;;;21.04;44.32;101871.47;5054933;27;101553;-34
2022/06/20 11:38:11;;;;;;;2.88;1.05;;;;;;;20.97;44.72;101873.88;5054736;27;100536;-34
2022/06/20 11:40:46;;;;;;;2.78;0.98;;;;;;;20.74;44.55;101862.19;5056206;27;96744;-34
2022/06/20 11:43:15;;;;;;;3.70;1.00;;;;;;;20.56;45.38;101860.03;5054805;27;96772;-34
2022/06/20 11:45:46;;;;;;;6.30;1.42;;;;;;;20.41;45.58;101872.34;5056119;27;97985;-34
2022/06/20 11:49:02;;;;;;;3.50;1.17;;;;;;;20.43;45.55;101884.13;5056053;27;98725;-34
2022/06/20 11:51:55;;;;;;;9.32;1.88;;;;;;;20.62;44.71;101880.66;5053568;27;97657;-34
2022/06/20 11:54:41;;;;;;;2.58;1.13;;;;;;;20.84;45.46;101876.00;5054758;27;96849;-34
2022/06/20 11:57:23;;;;;;;3.13;1.08;;;;;;;20.64;44.52;101875.91;5051577;27;101020;-34
2022/06/20 11:59:56;;;;;;;7.97;1.15;;;;;;;20.39;44.08;101879.88;5054491;27;100804;-34
2022/06/20 12:02:45;;;;;;;2.42;0.98;;;;;;;20.57;45.10;101882.94;5054134;27;96683;-34
2022/06/20 12:05:17;;;;;;;2.58;1.20;;;;;;;20.58;44.39;101892.94;5054790;27;96756;-34
2022/06/20 12:08:08;;;;;;;5.03;1.40;;;;;;;20.44;44.46;101887.72;5055542;27;97930;-34
2022/06/20 12:10:42;;;;;;;7.60;1.53;;;;;;;20.52;45.89;101882.41;5055669;27;97925;-35
2022/06/20 12:13:34;;;;;;;5.60;1.58;;;;;;;20.49;45.67;101888.19;5056284;27;96635;-35
2022/06/20 12:16:18;;;;;;;5.70;1.45;;;;;;;20.49;46.19;101891.81;5054743;27;96834;-34
2022/06/20 12:24:27;;;;;;;4.05;1.30;;;;;;;20.64;45.39;101884.16;5065326;27;97191;-35
2022/06/20 12:26:54;;;;;;;4.32;1.65;;;;;;;20.47;46.56;101877.31;5059110;27;97601;-34
2022/06/20 12:29:24;;;;;;;4.15;1.58;;;;;;;20.37;46.92;101893.75;5052000;27;100824;-35
2022/06/20 12:32:00;;;;;;;5.82;1.38;;;;;;;20.42;47.00;101887.00;5051595;27;100676;-35
2022/06/20 12:34:42;;;;;;;5.90;1.35;;;;;;;20.47;46.87;101893.81;5052149;27;97478;-35
2022/06/20 12:37:07;;;;;;;3.15;1.27;;;;;;;20.51;46.42;101883.44;5053527;27;96673;-35
2022/06/20 12:39:49;;;;;;;3.53;1.25;;;;;;;20.61;47.07;101876.16;5055307;27;99053;-35
2022/06/20 12:42:34;;;;;;;4.57;1.30;;;;;;;20.56;46.93;101875.69;5055378;27;97828;-35
2022/06/20 12:45:22;;;;;;;5.03;1.17;;;;;;;20.49;46.78;101889.06;5054303;27;96589;-35
2022/06/20 12:47:56;;;;;;;5.00;1.38;;;;;;;20.43;47.17;101892.38;5054455;27;96968;-35
2022/06/20 12:50:23;;;;;;;7.72;1.55;;;;;;;20.39;47.95;101890.88;5053110;27;101376;-34
2022/06/20 12:53:18;;;;;;;3.42;1.40;;;;;;;20.37;47.58;101891.00;5055271;27;99567;-35
2022/06/20 12:55:52;;;;;;;8.00;1.70;;;;;;;20.43;47.10;101886.88;5054018;27;96687;-34
2022/06/20 12:58:25;;;;;;;6.68;2.38;;;;;;;20.41;47.47;101890.75;5055270;27;96722;-35
2022/06/20 13:00:55;;;;;;;2.50;1.17;;;;;;;20.40;47.81;101898.13;5054376;27;99147;-34
2022/06/20 13:03:54;;;;;;;4.20;1.55;;;;;;;20.34;47.51;101888.53;5053644;27;101268;-35
2022/06/20 13:06:38;;;;;;;7.03;1.58;;;;;;;20.35;47.73;101889.41;5053761;27;96644;-35
2022/06/20 13:09:33;;;;;;;6.68;1.77;;;;;;;20.36;47.72;101891.16;5055449;27;96527;-34
2022/06/20 13:12:14;;;;;;;11.98;2.00;;;;;;;20.23;48.19;101885.81;5052406;27;100874;-35
2022/06/20 13:15:17;;;;;;;9.35;1.70;;;;;;;20.15;48.44;101889.22;5054807;27;97795;-35
2022/06/20 13:18:08;;;;;;;3.00;1.67;;;;;;;20.02;48.86;101887.66;5055315;27;96586;-35
2022/06/20 13:20:36;;;;;;;4.07;1.50;;;;;;;20.17;48.59;101908.38;5054040;27;96754;-34
2022/06/20 13:23:16;;;;;;;6.65;1.50;;;;;;;20.12;49.10;101897.75;5054846;27;96888;-35
2022/06/20 13:25:50;;;;;;;13.30;1.77;;;;;;;19.97;48.92;101910.06;5052762;27;100547;-34
2022/06/20 13:28:49;;;;;;;4.00;1.48;;;;;;;19.91;49.60;101902.34;5053000;27;96577;-34
2022/06/20 13:31:15;;;;;;;5.90;1.20;;;;;;;19.78;49.70;101898.84;5048934;27;97055;-34
2022/06/20 13:33:59;;;;;;;2.75;1.45;;;;;;;;;;5054087;27;99354;-34
2022/06/20 13:37:02;;;;;;;4.03;1.30;;;;;;;20.08;49.43;101889.91;5054748;27;97505;-34
2022/06/20 13:39:42;;;;;;;4.63;1.52;;;;;;;20.27;48.34;101891.94;5043602;27;96784;-34
2022/06/20 13:42:22;;;;;;;5.25;1.40;;;;;;;20.41;48.38;101899.88;5055006;27;96608;-35
2022/06/20 13:44:59;;;;;;;3.53;1.40;;;;;;;20.36;47.48;101899.41;5054287;27;99427;-35
2022/06/20 13:47:46;;;;;;;2.35;1.00;;;;;;;20.26;47.29;101901.19;5053390;27;101111;-35
2022/06/20 13:50:29;;;;;;;5.22;1.40;;;;;;;20.27;47.65;101897.44;5054633;27;96662;-35
2022/06/20 13:52:56;;;;;;;3.13;1.13;;;;;;;20.26;47.64;101891.09;5052500;27;96838;-36
2022/06/20 13:55:28;;;;;;;2.60;1.20;;;;;;;20.31;46.64;101891.56;5052799;27;97563;-36
2022/06/20 13:58:09;;;;;;;2.60;1.10;;;;;;;20.45;46.25;101889.47;5053694;27;97882;-34
2022/06/20 14:00:35;;;;;;;1.75;1.00;;;;;;;20.39;46.36;101892.75;5052876;27;97365;-35
2022/06/20 14:03:42;;;;;;;4.63;1.52;;;;;;;20.18;46.19;101904.59;5053131;27;97030;-35
2022/06/20 14:06:14;;;;;;;3.97;1.42;;;;;;;20.30;47.53;101898.03;5011212;28;97365;-35
2022/06/20 14:09:03;;;;;;;3.53;1.58;;;;;;;20.30;46.88;101903.53;5011579;28;99247;-35
2022/06/20 14:11:43;;;;;;;1.58;1.08;;;;;;;20.15;46.99;101905.75;5040021;27;96851;-35
2022/06/20 14:14:23;;;;;;;4.00;1.27;;;;;;;20.19;47.96;101900.88;5053423;27;96717;-35
2022/06/20 14:16:53;;;;;;;5.25;1.10;;;;;;;20.30;47.78;101900.78;5054060;27;98099;-35
2022/06/20 14:19:30;;;;;;;1.70;0.73;;;;;;;20.41;47.22;101901.78;5052472;27;101033;-35
2022/06/20 14:21:59;;;;;;;4.45;0.95;;;;;;;20.50;46.98;101903.72;5052496;27;96687;-35
2022/06/20 14:24:38;;;;;;;1.83;1.02;;;;;;;20.64;45.65;101903.44;5056371;27;96837;-35
2022/06/20 14:27:18;;;;;;;4.60;1.20;;;;;;;20.72;44.82;101905.50;5055896;27;100824;-35
2022/06/20 14:30:01;;;;;;;3.30;0.93;;;;;;;20.71;45.41;101912.91;5055829;27;100742;-35
2022/06/20 14:32:52;;;;;;;5.55;1.13;;;;;;;20.63;45.81;101909.06;5056146;27;96933;-34
2022/06/20 14:35:49;;;;;;;2.83;0.82;;;;;;;20.51;46.39;101903.56;5057905;27;96534;-34
2022/06/20 14:38:20;;;;;;;3.17;1.15;;;;;;;20.50;46.82;101904.59;5053257;27;99317;-35
2022/06/20 14:40:54;;;;;;;3.65;1.00;;;;;;;20.32;46.67;101907.03;5056127;27;100894;-35
2022/06/20 14:43:56;;;;;;;1.45;0.77;;;;;;;20.21;46.84;101897.97;5057541;27;96831;-35
2022/06/20 14:46:29;;;;;;;1.73;1.10;;;;;;;20.14;46.74;101903.13;5055192;27;96955;-35
2022/06/20 14:49:08;;;;;;;4.35;1.10;;;;;;;19.99;46.75;101896.19;5055174;27;101522;-35
2022/06/20 14:51:42;;;;;;;4.50;1.10;;;;;;;19.97;46.84;101911.94;5055619;27;100673;-34
2022/06/20 14:54:19;;;;;;;2.67;1.25;;;;;;;20.09;47.36;101905.38;5055994;27;96646;-35
2022/06/20 14:57:13;;;;;;;4.75;0.95;;;;;;;20.07;47.06;101912.88;5055735;27;96770;-35
2022/06/20 14:59:41;;;;;;;3.97;1.13;;;;;;;19.94;47.27;101915.81;5039473;27;97891;-35
2022/06/20 15:02:28;;;;;;;3.38;0.85;;;;;;;19.83;47.71;101904.84;5057072;27;97326;-35
2022/06/20 15:05:14;;;;;;;4.45;1.20;;;;;;;19.81;47.31;101907.75;5055727;27;96548;-35
2022/06/20 15:07:47;;;;;;;1.17;0.93;;;;;;;19.69;47.91;101903.28;5056134;27;96680;-35
2022/06/20 15:10:26;;;;;;;5.00;1.15;;;;;;;19.50;48.27;101899.25;5055414;27;100878;-35
2022/06/20 15:12:58;;;;;;;3.90;1.30;;;;;;;19.36;48.09;101894.03;5055452;27;100505;-35
2022/06/20 15:15:45;;;;;;;2.10;0.98;;;;;;;19.22;47.63;101900.66;5055089;27;96611;-35
2022/06/20 15:18:23;;;;;;;4.68;1.27;;;;;;;19.14;48.54;101897.66;5055369;27;96819;-35
2022/06/20 15:21:04;;;;;;;5.53;1.20;;;;;;;19.14;48.27;101888.53;5055108;27;100832;-35
2022/06/20 15:23:40;;;;;;;4.33;1.40;;;;;;;19.14;48.54;101888.53;5055252;27;100925;-35
2022/06/20 15:26:15;;;;;;;5.68;1.58;;;;;;;19.23;48.20;101893.28;5054901;27;96804;-35
2022/06/20 15:28:44;;;;;;;3.67;1.17;;;;;;;19.23;48.70;101890.53;5055432;27;96701;-34
2022/06/20 15:31:16;;;;;;;3.55;1.40;;;;;;;19.29;48.48;101890.91;5054864;27;100576;-35
2022/06/20 15:33:44;;;;;;;6.07;1.17;;;;;;;19.44;48.07;101896.13;5054629;27;100948;-35
2022/06/20 15:36:16;;;;;;;4.25;1.40;;;;;;;19.46;47.40;101891.41;5055170;27;96540;-35
2022/06/20 15:38:45;;;;;;;4.50;1.15;;;;;;;19.50;48.13;101888.28;5056762;27;96641;-34
2022/06/20 15:41:29;;;;;;;1.15;0.95;;;;;;;19.63;48.46;101892.75;5054350;27;101032;-35
2022/06/20 15:44:20;;;;;;;1.98;1.20;;;;;;;19.71;48.27;101904.88;5054620;27;98921;-35
2022/06/20 15:46:57;;;;;;;3.80;1.00;;;;;;;19.70;48.22;101905.00;5056471;27;96570;-35
2022/06/20 15:49:40;;;;;;;4.13;1.27;;;;;;;19.58;48.40;101893.13;5054970;27;97774;-35
2022/06/20 15:52:35;;;;;;;2.72;1.13;;;;;;;19.46;48.49;101897.75;5056656;27;97372;-35
2022/06/20 15:55:13;;;;;;;1.63;1.10;;;;;;;19.43;48.79;101898.03;5046366;27;97813;-35
2022/06/20 15:57:45;;;;;;;2.35;0.98;;;;;;;19.46;48.88;101895.00;5054668;27;96762;-35
2022/06/20 16:00:13;;;;;;;1.75;0.98;;;;;;;19.42;48.71;101895.38;5057049;27;96486;-35
2022/06/20 16:02:55;;;;;;;0.90;0.75;;;;;;;19.42;48.23;101898.13;5055324;27;99290;-35
2022/06/20 16:05:29;;;;;;;1.52;1.02;;;;;;;19.34;49.32;101896.03;5054361;27;100785;-35
2022/06/20 16:08:13;;;;;;;4.10;1.17;;;;;;;19.31;48.63;101890.78;5055819;27;96618;-35
2022/06/20 16:10:50;;;;;;;2.63;0.90;;;;;;;19.40;49.08;101884.53;5056298;27;96597;-35
2022/06/20 16:13:27;;;;;;;5.40;1.33;;;;;;;19.46;49.11;101881.28;5056013;27;97997;-34
2022/06/20 16:16:03;;;;;;;4.50;1.27;;;;;;;19.49;48.78;101894.75;5055286;27;99472;-35
2022/06/20 16:18:31;;;;;;;2.63;1.23;;;;;;;19.51;48.64;101887.25;5054567;27;96658;-34
2022/06/20 16:21:00;;;;;;;4.68;2.47;;;;;;;19.53;48.74;101878.91;5054301;27;97240;-34
2022/06/20 16:23:38;;;;;;;7.20;1.48;;;;;;;19.59;48.81;101877.50;5054079;27;100596;-34
2022/06/20 16:26:15;;;;;;;1.52;1.10;;;;;;;19.61;48.73;101879.13;5055730;27;97802;-34
2022/06/20 16:28:55;;;;;;;2.63;1.23;;;;;;;19.70;48.79;101888.50;5054680;27;96543;-34
2022/06/20 16:31:30;;;;;;;5.97;1.55;;;;;;;19.60;49.02;101862.78;5056028;27;96583;-34
2022/06/20 16:33:57;;;;;;;2.30;1.30;;;;;;;19.66;48.96;101871.38;5052740;27;101004;-34
2022/06/20 16:36:32;;;;;;;5.50;1.30;;;;;;;19.62;49.13;101867.13;5053830;27;100702;-34
2022/06/20 16:39:19;;;;;;;1.00;0.75;;;;;;;19.71;49.14;101873.75;5055776;27;96742;-34
2022/06/20 16:42:06;;;;;;;2.95;1.10;;;;;;;19.65;48.76;101869.63;5055234;27;96642;-34
2022/06/20 16:44:42;;;;;;;3.42;1.10;;;;;;;19.58;48.25;101873.00;5053528;27;101053;-34
2022/06/20 16:47:27;;;;;;;1.30;0.70;;;;;;;19.52;49.01;101874.38;5053689;27;100673;-34
2022/06/20 16:50:06;;;;;;;3.15;1.02;;;;;;;19.47;48.67;101872.03;5055517;27;96639;-34